createdAt,value
2018-05-08T00:02:21.674Z,16.70
2018-05-08T00:04:50.006Z,16.60
2018-05-08T00:07:19.030Z,16.60
2018-05-08T00:09:47.318Z,16.50
2018-05-08T00:12:15.598Z,16.60
2018-05-08T00:14:43.953Z,16.50
2018-05-08T00:17:12.280Z,16.50
2018-05-08T00:19:40.537Z,16.50
2018-05-08T00:22:08.797Z,16.50
2018-05-08T00:24:37.046Z,16.50
2018-05-08T00:27:06.081Z,16.50
2018-05-08T00:29:34.322Z,16.40
2018-05-08T00:32:02.575Z,16.50
2018-05-08T00:34:31.727Z,16.30
2018-05-08T00:36:59.999Z,16.30
2018-05-08T00:39:28.223Z,16.20
2018-05-08T00:41:57.270Z,16.10
2018-05-08T00:44:25.517Z,16.00
2018-05-08T00:46:53.802Z,16.10
2018-05-08T00:49:22.043Z,16.10
2018-05-08T00:51:51.313Z,16.10
2018-05-08T00:54:32.209Z,16.10
2018-05-08T00:57:01.324Z,16.00
2018-05-08T00:59:30.339Z,16.00
2018-05-08T01:01:58.605Z,16.00
2018-05-08T01:04:26.846Z,16.00
2018-05-08T01:06:55.881Z,16.00
2018-05-08T01:09:24.145Z,16.00
2018-05-08T01:11:52.393Z,16.00
2018-05-08T01:14:21.557Z,16.00
2018-05-08T01:16:49.806Z,16.00
2018-05-08T01:19:18.062Z,16.00
2018-05-08T01:21:46.352Z,15.90
2018-05-08T01:24:14.666Z,15.90
2018-05-08T01:26:42.902Z,15.80
2018-05-08T01:29:11.178Z,15.80
2018-05-08T01:31:39.521Z,15.70
2018-05-08T01:34:07.698Z,15.70
2018-05-08T01:36:35.941Z,15.60
2018-05-08T01:39:05.101Z,15.60
2018-05-08T01:41:33.354Z,15.60
2018-05-08T01:44:01.616Z,15.50
2018-05-08T01:46:29.877Z,15.50
2018-05-08T01:48:58.901Z,15.40
2018-05-08T01:51:27.156Z,15.30
2018-05-08T01:53:55.409Z,15.30
2018-05-08T01:56:23.667Z,15.20
2018-05-08T01:58:51.921Z,15.10
2018-05-08T02:01:20.195Z,15.10
2018-05-08T02:03:48.433Z,15.00
2018-05-08T02:06:16.710Z,15.00
2018-05-08T02:08:44.967Z,15.00
2018-05-08T02:11:14.553Z,15.00
2018-05-08T02:13:42.822Z,14.90
2018-05-08T02:16:11.095Z,15.00
2018-05-08T02:18:39.392Z,15.00
2018-05-08T02:21:08.421Z,14.80
2018-05-08T02:23:36.702Z,14.70
2018-05-08T02:26:04.982Z,14.80
2018-05-08T02:28:33.222Z,14.70
2018-05-08T02:31:01.575Z,14.60
2018-05-08T02:33:30.604Z,14.70
2018-05-08T02:35:59.135Z,14.60
2018-05-08T02:38:27.394Z,14.70
2018-05-08T02:40:55.643Z,14.70
2018-05-08T02:43:23.891Z,14.70
2018-05-08T02:45:52.944Z,14.60
2018-05-08T02:48:21.225Z,14.50
2018-05-08T02:50:49.557Z,14.60
2018-05-08T02:53:17.907Z,14.50
2018-05-08T02:55:46.919Z,14.40
2018-05-08T02:58:15.198Z,14.40
2018-05-08T03:00:43.442Z,14.40
2018-05-08T03:03:12.482Z,14.20
2018-05-08T03:05:40.729Z,14.10
2018-05-08T03:08:09.822Z,14.00
2018-05-08T03:10:38.941Z,13.90
2018-05-08T03:13:07.215Z,13.80
2018-05-08T03:15:35.462Z,13.90
2018-05-08T03:18:04.481Z,13.80
2018-05-08T03:20:32.856Z,13.70
2018-05-08T03:23:01.127Z,13.60
2018-05-08T03:25:29.407Z,13.60
2018-05-08T03:27:57.734Z,13.60
2018-05-08T03:30:25.969Z,13.60
2018-05-08T03:32:54.243Z,13.60
2018-05-08T03:35:22.497Z,13.50
2018-05-08T03:37:50.921Z,13.50
2018-05-08T03:40:19.333Z,13.40
2018-05-08T03:42:47.642Z,13.40
2018-05-08T03:45:15.889Z,13.30
2018-05-08T03:47:44.906Z,13.30
2018-05-08T03:50:13.179Z,13.30
2018-05-08T03:52:41.715Z,13.30
2018-05-08T03:55:10.852Z,13.40
2018-05-08T03:57:39.110Z,13.30
2018-05-08T04:00:07.559Z,13.40
2018-05-08T04:02:47.716Z,13.30
2018-05-08T04:05:27.872Z,13.30
2018-05-08T04:08:09.743Z,13.30
2018-05-08T04:10:37.974Z,13.20
2018-05-08T04:13:06.239Z,13.30
2018-05-08T04:15:35.279Z,13.30
2018-05-08T04:18:03.509Z,13.20
2018-05-08T04:20:32.579Z,13.30
2018-05-08T04:23:00.877Z,13.20
2018-05-08T04:25:29.127Z,13.30
2018-05-08T04:27:58.159Z,13.40
2018-05-08T04:30:26.418Z,13.30
2018-05-08T04:32:55.495Z,13.40
2018-05-08T04:35:24.509Z,13.50
2018-05-08T04:37:52.776Z,13.40
2018-05-08T04:40:21.042Z,13.60
2018-05-08T04:42:50.082Z,14.40
2018-05-08T04:45:18.361Z,14.30
2018-05-08T04:47:46.607Z,15.00
2018-05-08T04:50:14.911Z,15.90
2018-05-08T04:52:43.153Z,16.10
2018-05-08T04:55:11.408Z,16.60
2018-05-08T04:57:40.446Z,17.60
2018-05-08T05:00:08.711Z,17.60
2018-05-08T05:02:37.234Z,18.00
2018-05-08T05:05:06.186Z,18.80
2018-05-08T05:07:34.430Z,18.80
2018-05-08T05:10:03.497Z,19.30
2018-05-08T05:12:31.738Z,19.20
2018-05-08T05:14:59.993Z,19.50
2018-05-08T05:17:28.254Z,19.90
2018-05-08T05:19:56.515Z,20.20
2018-05-08T05:22:25.584Z,20.80
2018-05-08T05:24:53.853Z,20.70
2018-05-08T05:27:22.103Z,21.10
2018-05-08T05:29:50.377Z,21.50
2018-05-08T05:32:18.626Z,22.00
2018-05-08T05:34:46.968Z,22.80
2018-05-08T05:37:15.205Z,22.90
2018-05-08T05:39:43.489Z,23.30
2018-05-08T05:42:11.758Z,23.70
2018-05-08T05:44:40.038Z,24.00
2018-05-08T05:47:08.298Z,24.20
2018-05-08T05:49:36.590Z,24.30
2018-05-08T05:52:04.863Z,24.20
2018-05-08T05:54:33.944Z,24.30
2018-05-08T05:57:02.227Z,24.40
2018-05-08T05:59:30.471Z,24.50
2018-05-08T06:01:58.790Z,24.70
2018-05-08T06:04:27.149Z,24.90
2018-05-08T06:06:55.417Z,25.10
2018-05-08T06:09:23.693Z,25.30
2018-05-08T06:11:52.011Z,25.20
2018-05-08T06:14:20.287Z,25.30
2018-05-08T06:16:48.520Z,25.30
2018-05-08T06:19:16.763Z,25.40
2018-05-08T06:21:45.017Z,25.40
2018-05-08T06:24:14.034Z,25.20
2018-05-08T06:26:42.305Z,25.20
2018-05-08T06:29:10.597Z,24.90
2018-05-08T06:31:38.903Z,24.70
2018-05-08T06:34:07.135Z,24.50
2018-05-08T06:36:35.403Z,24.10
2018-05-08T06:39:03.664Z,23.70
2018-05-08T06:41:32.685Z,22.90
2018-05-08T06:44:01.062Z,22.80
2018-05-08T06:46:29.322Z,22.60
2018-05-08T06:48:57.599Z,22.30
2018-05-08T06:51:25.901Z,22.10
2018-05-08T06:53:54.214Z,22.00
2018-05-08T06:56:22.466Z,21.80
2018-05-08T06:58:50.744Z,21.70
2018-05-08T07:01:19.004Z,21.60
2018-05-08T07:03:47.297Z,21.50
2018-05-08T07:06:15.562Z,21.50
2018-05-08T07:08:43.976Z,21.50
2018-05-08T07:11:12.240Z,21.40
2018-05-08T07:13:40.498Z,21.40
2018-05-08T07:16:08.849Z,21.40
2018-05-08T07:18:37.025Z,21.50
2018-05-08T07:21:05.278Z,21.50
2018-05-08T07:23:33.550Z,21.50
2018-05-08T07:26:02.571Z,21.50
2018-05-08T07:28:30.954Z,21.40
2018-05-08T07:30:59.274Z,21.50
2018-05-08T07:33:27.530Z,21.50
2018-05-08T07:35:55.781Z,21.60
2018-05-08T07:38:24.122Z,21.60
2018-05-08T07:40:52.307Z,21.60
2018-05-08T07:43:20.578Z,21.70
2018-05-08T07:45:48.925Z,21.70
2018-05-08T07:48:17.938Z,21.80
2018-05-08T07:50:47.074Z,21.90
2018-05-08T07:53:15.325Z,21.80
2018-05-08T07:55:43.601Z,21.90
2018-05-08T07:58:11.855Z,22.00
2018-05-08T08:00:40.890Z,22.20
2018-05-08T08:03:09.145Z,22.10
2018-05-08T08:05:37.421Z,22.30
2018-05-08T08:08:05.758Z,22.30
2018-05-08T08:10:34.790Z,22.40
2018-05-08T08:13:03.051Z,22.30
2018-05-08T08:15:31.310Z,22.40
2018-05-08T08:18:00.389Z,22.50
2018-05-08T08:20:29.429Z,22.60
2018-05-08T08:22:57.695Z,22.60
2018-05-08T08:25:25.947Z,22.70
2018-05-08T08:27:55.024Z,22.80
2018-05-08T08:30:24.058Z,22.90
2018-05-08T08:32:52.368Z,22.80
2018-05-08T08:35:20.599Z,23.00
2018-05-08T08:37:48.951Z,23.10
2018-05-08T08:40:17.965Z,23.10
2018-05-08T08:42:46.229Z,23.10
2018-05-08T08:45:15.357Z,23.20
2018-05-08T08:47:43.646Z,23.20
2018-05-08T08:50:11.891Z,23.30
2018-05-08T08:52:40.204Z,23.40
2018-05-08T08:55:08.453Z,23.40
2018-05-08T08:57:36.823Z,23.50
2018-05-08T09:00:05.123Z,23.60
2018-05-08T09:02:33.369Z,23.60
2018-05-08T09:05:02.383Z,23.50
2018-05-08T09:07:30.682Z,23.50
2018-05-08T09:10:00.490Z,23.70
2018-05-08T09:12:28.751Z,23.70
2018-05-08T09:14:57.036Z,23.80
2018-05-08T09:17:25.294Z,23.80
2018-05-08T09:19:53.634Z,23.90
2018-05-08T09:22:22.666Z,24.10
2018-05-08T09:24:50.932Z,24.10
2018-05-08T09:27:19.189Z,24.20
2018-05-08T09:29:47.528Z,24.20
2018-05-08T09:32:15.810Z,24.30
2018-05-08T09:34:44.840Z,24.40
2018-05-08T09:37:13.114Z,24.30
2018-05-08T09:39:41.367Z,24.40
2018-05-08T09:42:09.678Z,24.40
2018-05-08T09:44:37.954Z,24.40
2018-05-08T09:47:06.230Z,24.50
2018-05-08T09:49:34.478Z,24.60
2018-05-08T09:52:02.764Z,24.60
2018-05-08T09:54:31.032Z,24.60
2018-05-08T09:56:59.274Z,24.60
2018-05-08T09:59:28.302Z,24.70
2018-05-08T10:01:56.562Z,24.60
2018-05-08T10:04:25.605Z,24.90
2018-05-08T10:06:53.868Z,24.80
2018-05-08T10:09:22.119Z,24.90
2018-05-08T10:11:50.382Z,25.00
2018-05-08T10:14:18.656Z,25.00
2018-05-08T10:16:46.947Z,25.20
2018-05-08T10:19:15.984Z,25.20
2018-05-08T10:21:44.271Z,25.20
2018-05-08T10:24:12.543Z,25.30
2018-05-08T10:26:40.830Z,25.30
2018-05-08T10:29:09.073Z,25.30
2018-05-08T10:31:37.327Z,25.30
2018-05-08T10:34:05.680Z,25.30
2018-05-08T10:36:33.941Z,25.40
2018-05-08T10:39:03.382Z,25.60
2018-05-08T10:41:31.658Z,25.60
2018-05-08T10:43:59.922Z,25.80
2018-05-08T10:46:28.197Z,26.00
2018-05-08T10:48:56.471Z,26.00
2018-05-08T10:51:24.899Z,25.90
2018-05-08T10:53:53.306Z,25.80
2018-05-08T10:56:21.613Z,25.70
2018-05-08T10:58:49.861Z,25.90
2018-05-08T11:01:18.294Z,26.00
2018-05-08T11:03:46.560Z,26.10
2018-05-08T11:06:14.842Z,26.10
2018-05-08T11:08:43.079Z,26.30
2018-05-08T11:11:11.342Z,26.20
2018-05-08T11:13:39.605Z,26.30
2018-05-08T11:16:08.705Z,26.60
2018-05-08T11:18:36.982Z,26.50
2018-05-08T11:21:05.273Z,26.60
2018-05-08T11:23:33.530Z,26.80
2018-05-08T11:26:01.910Z,26.90
2018-05-08T11:28:30.189Z,27.00
2018-05-08T11:30:58.480Z,27.10
2018-05-08T11:33:26.742Z,27.10
2018-05-08T11:35:55.044Z,27.20
2018-05-08T11:38:23.345Z,27.10
2018-05-08T11:40:51.742Z,27.20
2018-05-08T11:43:20.790Z,27.30
2018-05-08T11:45:49.141Z,27.20
2018-05-08T11:48:17.425Z,27.30
2018-05-08T11:50:45.748Z,27.30
2018-05-08T11:53:15.595Z,27.10
2018-05-08T11:55:44.619Z,27.20
2018-05-08T11:58:12.882Z,27.20
2018-05-08T12:00:41.171Z,27.20
2018-05-08T12:03:09.453Z,27.20
2018-05-08T12:05:37.745Z,27.20
2018-05-08T12:08:06.021Z,27.10
2018-05-08T12:10:34.278Z,27.20
2018-05-08T12:13:02.551Z,27.20
2018-05-08T12:15:30.824Z,27.30
2018-05-08T12:17:59.097Z,27.30
2018-05-08T12:20:27.396Z,27.20
2018-05-08T12:22:57.166Z,27.20
2018-05-08T12:25:25.458Z,27.20
2018-05-08T12:27:53.801Z,27.30
2018-05-08T12:30:22.052Z,27.30
2018-05-08T12:32:50.354Z,27.30
2018-05-08T12:35:19.399Z,27.40
2018-05-08T12:37:47.761Z,27.40
2018-05-08T12:40:16.142Z,27.50
2018-05-08T12:42:44.419Z,27.50
2018-05-08T12:45:12.686Z,27.50
2018-05-08T12:47:40.937Z,27.50
2018-05-08T12:50:09.249Z,27.50
2018-05-08T12:52:37.702Z,27.60
2018-05-08T12:55:06.082Z,27.60
2018-05-08T12:57:34.534Z,27.60
2018-05-08T13:00:02.786Z,27.70
2018-05-08T13:02:32.600Z,27.70
2018-05-08T13:05:01.658Z,27.80
2018-05-08T13:07:29.934Z,27.80
2018-05-08T13:09:58.291Z,27.80
2018-05-08T13:12:26.534Z,27.80
2018-05-08T13:14:55.621Z,27.80
2018-05-08T13:17:24.663Z,27.90
2018-05-08T13:19:52.941Z,27.80
2018-05-08T13:22:21.198Z,27.90
2018-05-08T13:24:49.457Z,28.00
2018-05-08T13:27:18.482Z,28.10
2018-05-08T13:29:46.737Z,28.10
2018-05-08T13:32:15.001Z,28.10
2018-05-08T13:34:43.312Z,28.20
2018-05-08T13:37:11.644Z,28.20
2018-05-08T13:39:39.914Z,28.20
2018-05-08T13:42:08.903Z,28.20
2018-05-08T13:44:37.969Z,28.20
2018-05-08T13:47:06.232Z,28.10
2018-05-08T13:49:34.511Z,28.20
2018-05-08T13:52:02.747Z,28.10
2018-05-08T13:54:31.053Z,28.10
2018-05-08T13:56:59.308Z,28.10
2018-05-08T13:59:27.581Z,28.20
2018-05-08T14:01:55.876Z,28.20
2018-05-08T14:04:24.140Z,28.20
2018-05-08T14:06:52.447Z,28.20
2018-05-08T14:09:20.649Z,28.20
2018-05-08T14:11:48.947Z,28.20
2018-05-08T14:14:17.254Z,28.20
2018-05-08T14:16:45.523Z,28.20
2018-05-08T14:19:13.872Z,28.20
2018-05-08T14:21:42.068Z,28.20
2018-05-08T14:24:10.365Z,28.20
2018-05-08T14:26:38.622Z,28.30
2018-05-08T14:29:07.032Z,28.30
2018-05-08T14:31:36.092Z,28.30
2018-05-08T14:34:04.347Z,28.30
2018-05-08T14:36:32.630Z,28.30
2018-05-08T14:39:00.910Z,28.40
2018-05-08T14:41:29.215Z,28.40
2018-05-08T14:43:57.530Z,28.50
2018-05-08T14:46:25.826Z,28.40
2018-05-08T14:48:54.084Z,28.40
2018-05-08T14:51:22.347Z,28.40
2018-05-08T14:53:51.393Z,28.60
2018-05-08T14:56:19.814Z,28.60
2018-05-08T14:58:48.864Z,28.80
2018-05-08T15:01:17.105Z,28.80
2018-05-08T15:03:45.413Z,29.00
2018-05-08T15:06:13.667Z,29.00
2018-05-08T15:08:41.943Z,29.00
2018-05-08T15:11:10.261Z,29.10
2018-05-08T15:13:38.519Z,29.10
2018-05-08T15:16:06.770Z,29.10
2018-05-08T15:18:35.051Z,29.10
2018-05-08T15:21:03.341Z,29.10
2018-05-08T15:23:31.697Z,29.00
2018-05-08T15:25:59.947Z,29.00
2018-05-08T15:28:28.970Z,28.90
2018-05-08T15:30:57.268Z,28.90
2018-05-08T15:33:25.554Z,28.90
2018-05-08T15:35:53.877Z,29.00
2018-05-08T15:38:22.130Z,29.00
2018-05-08T15:40:51.183Z,29.00
2018-05-08T15:43:19.708Z,28.90
2018-05-08T15:45:48.813Z,29.00
2018-05-08T15:48:17.073Z,28.90
2018-05-08T15:50:46.095Z,29.00
2018-05-08T15:53:21.546Z,29.00
2018-05-08T15:55:49.974Z,29.00
2018-05-08T15:58:18.993Z,29.00
2018-05-08T16:00:47.298Z,28.90
2018-05-08T16:03:15.638Z,28.90
2018-05-08T16:05:43.928Z,28.90
2018-05-08T16:08:12.187Z,28.90
2018-05-08T16:10:40.481Z,28.90
2018-05-08T16:13:08.742Z,28.80
2018-05-08T16:15:37.826Z,28.70
2018-05-08T16:18:06.092Z,28.70
2018-05-08T16:20:34.353Z,28.70
2018-05-08T16:23:03.398Z,28.70
2018-05-08T16:25:31.706Z,28.60
2018-05-08T16:28:00.621Z,28.60
2018-05-08T16:30:28.943Z,28.70
2018-05-08T16:32:57.161Z,28.60
2018-05-08T16:35:25.416Z,28.60
2018-05-08T16:37:53.706Z,28.60
2018-05-08T16:40:21.934Z,28.50
2018-05-08T16:42:50.286Z,28.50
2018-05-08T16:45:19.367Z,28.50
2018-05-08T16:47:48.414Z,28.50
2018-05-08T16:50:16.679Z,28.40
2018-05-08T16:52:44.995Z,28.50
2018-05-08T16:55:13.244Z,28.40
2018-05-08T16:57:41.499Z,28.40
2018-05-08T17:00:09.862Z,28.30
2018-05-08T17:02:38.976Z,28.30
2018-05-08T17:05:07.243Z,28.20
2018-05-08T17:07:35.574Z,28.20
2018-05-08T17:10:04.103Z,28.20
2018-05-08T17:12:32.346Z,28.20
2018-05-08T17:15:00.751Z,28.10
2018-05-08T17:17:29.034Z,28.10
2018-05-08T17:19:57.324Z,28.10
2018-05-08T17:22:25.592Z,28.10
2018-05-08T17:24:53.916Z,28.00
2018-05-08T17:27:22.972Z,28.00
2018-05-08T17:29:51.286Z,27.90
2018-05-08T17:32:19.584Z,28.00
2018-05-08T17:34:47.849Z,28.00
2018-05-08T17:37:16.978Z,27.90
2018-05-08T17:39:45.399Z,27.80
2018-05-08T17:42:13.627Z,27.90
2018-05-08T17:44:41.885Z,27.80
2018-05-08T17:47:10.221Z,27.80
2018-05-08T17:49:38.491Z,27.80
2018-05-08T17:52:07.585Z,27.70
2018-05-08T17:54:35.840Z,27.70
2018-05-08T17:57:04.118Z,27.70
2018-05-08T17:59:32.379Z,27.70
2018-05-08T18:02:00.671Z,27.60
2018-05-08T18:04:28.941Z,27.60
2018-05-08T18:06:57.230Z,27.60
2018-05-08T18:09:25.561Z,27.60
2018-05-08T18:11:53.821Z,27.50
2018-05-08T18:14:22.867Z,27.40
2018-05-08T18:16:51.143Z,27.30
2018-05-08T18:19:19.425Z,27.30
2018-05-08T18:21:47.714Z,27.30
2018-05-08T18:24:16.051Z,27.20
2018-05-08T18:26:44.350Z,27.10
2018-05-08T18:29:12.634Z,27.10
2018-05-08T18:31:41.018Z,27.00
2018-05-08T18:34:09.262Z,27.00
2018-05-08T18:36:37.535Z,26.90
2018-05-08T18:39:05.829Z,26.80
2018-05-08T18:41:34.092Z,26.70
2018-05-08T18:44:02.528Z,26.60
2018-05-08T18:46:30.740Z,26.50
2018-05-08T18:48:59.046Z,26.40
2018-05-08T18:51:28.092Z,26.20
2018-05-08T18:53:56.374Z,26.10
2018-05-08T18:56:24.654Z,26.10
2018-05-08T18:58:52.916Z,26.00
2018-05-08T19:01:21.214Z,25.80
2018-05-08T19:03:49.583Z,25.70
2018-05-08T19:06:17.874Z,25.70
2018-05-08T19:08:46.134Z,25.50
2018-05-08T19:11:14.506Z,25.40
2018-05-08T19:13:42.774Z,25.30
2018-05-08T19:16:11.047Z,25.20
2018-05-08T19:18:39.368Z,25.10
2018-05-08T19:21:07.632Z,25.00
2018-05-08T19:23:37.406Z,24.60
2018-05-08T19:26:05.785Z,24.60
2018-05-08T19:28:34.096Z,24.50
2018-05-08T19:31:02.593Z,24.40
2018-05-08T19:33:31.051Z,24.20
2018-05-08T19:35:59.363Z,24.10
2018-05-08T19:38:28.407Z,23.90
2018-05-08T19:40:56.678Z,23.90
2018-05-08T19:43:24.952Z,23.90
2018-05-08T19:45:53.263Z,23.80
2018-05-08T19:48:21.580Z,23.60
2018-05-08T19:50:49.831Z,23.50
2018-05-08T19:53:18.867Z,23.40
2018-05-08T19:55:47.121Z,23.30
2018-05-08T19:58:15.483Z,23.30
2018-05-08T20:00:43.703Z,23.20
2018-05-08T20:03:11.978Z,23.10
2018-05-08T20:05:40.280Z,23.00
2018-05-08T20:08:08.520Z,22.80
2018-05-08T20:10:37.143Z,22.70
2018-05-08T20:13:05.584Z,22.50
2018-05-08T20:15:33.995Z,22.30
2018-05-08T20:18:02.354Z,22.20
2018-05-08T20:20:30.647Z,22.00
2018-05-08T20:22:59.024Z,21.90
2018-05-08T20:25:27.299Z,21.70
2018-05-08T20:27:55.697Z,21.60
2018-05-08T20:30:23.946Z,21.40
2018-05-08T20:32:52.207Z,21.30
2018-05-08T20:35:20.473Z,21.20
2018-05-08T20:37:48.739Z,21.20
2018-05-08T20:40:17.021Z,21.20
2018-05-08T20:42:45.365Z,21.20
2018-05-08T20:45:13.661Z,21.20
2018-05-08T20:47:41.916Z,21.20
2018-05-08T20:50:10.224Z,21.20
2018-05-08T20:52:38.689Z,21.20
2018-05-08T20:55:06.962Z,21.30
2018-05-08T20:57:35.247Z,21.30
2018-05-08T21:00:03.621Z,21.30
2018-05-08T21:02:31.893Z,21.20
2018-05-08T21:05:00.235Z,21.20
2018-05-08T21:07:29.287Z,21.10
2018-05-08T21:09:57.574Z,21.10
2018-05-08T21:12:25.825Z,21.10
2018-05-08T21:14:54.120Z,21.00
2018-05-08T21:17:22.409Z,20.90
2018-05-08T21:19:50.683Z,20.80
2018-05-08T21:22:19.001Z,20.70
2018-05-08T21:24:47.278Z,20.70
2018-05-08T21:27:15.545Z,20.70
2018-05-08T21:29:43.802Z,20.60
2018-05-08T21:32:12.930Z,20.50
2018-05-08T21:34:41.185Z,20.50
2018-05-08T21:37:09.563Z,20.50
2018-05-08T21:39:37.934Z,20.50
2018-05-08T21:42:06.949Z,20.40
2018-05-08T21:44:35.282Z,20.40
2018-05-08T21:47:03.544Z,20.40
2018-05-08T21:49:31.891Z,20.40
2018-05-08T21:52:00.155Z,20.40
2018-05-08T21:54:28.430Z,20.30
2018-05-08T21:56:56.702Z,20.30
2018-05-08T21:59:24.989Z,20.30
2018-05-08T22:01:53.265Z,20.20
2018-05-08T22:04:21.558Z,20.20
2018-05-08T22:06:49.822Z,20.20
2018-05-08T22:09:18.179Z,20.10
2018-05-08T22:11:46.488Z,20.00
2018-05-08T22:14:14.744Z,20.00
2018-05-08T22:16:43.019Z,20.00
2018-05-08T22:19:11.273Z,19.90
2018-05-08T22:21:39.671Z,19.90
2018-05-08T22:24:07.917Z,19.90
2018-05-08T22:26:36.191Z,19.90
2018-05-08T22:29:04.444Z,19.80
2018-05-08T22:31:33.574Z,19.90
2018-05-08T22:34:01.866Z,19.80
2018-05-08T22:36:30.129Z,19.80
2018-05-08T22:38:58.378Z,19.80
2018-05-08T22:41:26.655Z,19.60
2018-05-08T22:43:54.912Z,19.30
2018-05-08T22:46:23.943Z,19.10
2018-05-08T22:48:52.197Z,19.10
2018-05-08T22:51:20.489Z,19.10
2018-05-08T22:53:48.747Z,19.10
2018-05-08T22:56:17.013Z,19.10
2018-05-08T22:58:46.057Z,18.90
2018-05-08T23:01:14.322Z,18.90
2018-05-08T23:03:42.602Z,18.90
2018-05-08T23:06:10.858Z,18.90
2018-05-08T23:08:39.276Z,18.90
2018-05-08T23:11:07.565Z,18.80
2018-05-08T23:13:37.321Z,18.70
2018-05-08T23:16:05.594Z,18.70
2018-05-08T23:18:33.879Z,18.70
2018-05-08T23:21:02.176Z,18.70
2018-05-08T23:23:30.474Z,18.60
2018-05-08T23:25:58.896Z,18.50
2018-05-08T23:28:27.218Z,18.50
2018-05-08T23:30:55.468Z,18.30
2018-05-08T23:33:23.819Z,18.30
2018-05-08T23:35:52.092Z,18.30
2018-05-08T23:38:21.247Z,18.20
2018-05-08T23:40:49.469Z,18.10
2018-05-08T23:43:17.733Z,18.20
2018-05-08T23:45:46.004Z,18.20
2018-05-08T23:48:14.273Z,18.20
2018-05-08T23:50:43.343Z,18.20
2018-05-08T23:53:11.592Z,18.10
2018-05-08T23:55:39.877Z,18.20
2018-05-08T23:58:08.150Z,18.20
